VVDN

Da Nang International Airport

Da Nang, Vietnam
TAF VVDN 162300Z 1700/1724 34006KT 6000 FEW008 SCT013 BKN050 TEMPO 1700/1706 3200 RA BR TEMPO 1710/1714 4000 RA BR TEMPO 1721/1724 4000 RA BR
Issued Valid From Valid To
Jan-16 @ 23:00 UTC
(6 hours ago)
Jan-17 @ 00:00 UTC
(5 hours ago)
Jan-18 @ 00:00 UTC
(in 19 hours)
Jan-17 @ 00:00 to Jan-18 @ 00:00
TAF VVDN 162300Z 1700/1724 34006KT 6000 FEW008 SCT013 BKN050
Wind Visibility Clouds
340° at 6 knots 6,003 meters
  • Few at 800' AGL
  • Scattered at 1,300' AGL
  • Broken at 5,000' AGL
Temporary Jan-17 @ 00:00 to Jan-17 @ 06:00
TEMPO 1700/1706 3200 RA BR
Visibility Conditions
3,203 meters
  • Rain
  • Mist
Temporary Jan-17 @ 10:00 to Jan-17 @ 14:00
TEMPO 1710/1714 4000 RA BR
Visibility Conditions
4,007 meters
  • Rain
  • Mist
Temporary Jan-17 @ 21:00 to Jan-18 @ 00:00
TEMPO 1721/1724 4000 RA BR
Visibility Conditions
4,007 meters
  • Rain
  • Mist
TAF VVDN 162300Z 1700/1724 34006KT 6000 FEW008 SCT013 BKN050 TEMPO 1700/1706 3200 RA BR TEMPO 1710/1714 4000 RA BR TEMPO 1721/1724 4000 RA BR
Issued Jan-16 @ 23:00 UTC
(6 hours ago)
Valid From Jan-17 @ 00:00 UTC
(5 hours ago)
Valid To Jan-18 @ 00:00 UTC
(in 19 hours)
Jan-17 @ 00:00 - Jan-18 @ 00:00
Wind Visibility
340° at 6 knots 6,003 meters
Clouds
  • Few at 800' AGL
  • Scattered at 1,300' AGL
  • Broken at 5,000' AGL
Temporary Jan-17 @ 00:00 - Jan-17 @ 06:00
Conditions
  • Rain
  • Mist
Temporary Jan-17 @ 10:00 - Jan-17 @ 14:00
Conditions
  • Rain
  • Mist
Temporary Jan-17 @ 21:00 - Jan-18 @ 00:00
Conditions
  • Rain
  • Mist